sensor_id;sensor_type;location;lat;lon;timestamp;P1;durP1;ratioP1;P2;durP2;ratioP2
10596;SDS011;5346;48.766;8.674;2023-06-26T00:00:03;8.32;;;6.38;;
10596;SDS011;5346;48.766;8.674;2023-06-26T00:02:34;7.22;;;5.90;;
10596;SDS011;5346;48.766;8.674;2023-06-26T00:05:09;6.05;;;5.45;;
10596;SDS011;5346;48.766;8.674;2023-06-26T00:07:37;6.50;;;5.78;;
10596;SDS011;5346;48.766;8.674;2023-06-26T00:10:11;6.40;;;5.72;;
10596;SDS011;5346;48.766;8.674;2023-06-26T00:12:38;8.77;;;6.35;;
10596;SDS011;5346;48.766;8.674;2023-06-26T00:15:13;6.00;;;5.20;;
10596;SDS011;5346;48.766;8.674;2023-06-26T00:17:40;6.57;;;5.75;;
10596;SDS011;5346;48.766;8.674;2023-06-26T00:20:15;6.50;;;5.75;;
10596;SDS011;5346;48.766;8.674;2023-06-26T00:22:45;7.18;;;5.60;;
10596;SDS011;5346;48.766;8.674;2023-06-26T00:25:19;6.35;;;5.68;;
10596;SDS011;5346;48.766;8.674;2023-06-26T00:27:55;7.55;;;6.10;;
10596;SDS011;5346;48.766;8.674;2023-06-26T00:30:22;6.82;;;5.75;;
10596;SDS011;5346;48.766;8.674;2023-06-26T00:32:57;8.75;;;6.18;;
10596;SDS011;5346;48.766;8.674;2023-06-26T00:35:27;6.38;;;5.60;;
10596;SDS011;5346;48.766;8.674;2023-06-26T00:37:55;6.93;;;5.53;;
10596;SDS011;5346;48.766;8.674;2023-06-26T00:40:30;8.02;;;5.82;;
10596;SDS011;5346;48.766;8.674;2023-06-26T00:43:04;6.93;;;6.10;;
10596;SDS011;5346;48.766;8.674;2023-06-26T00:45:38;7.53;;;6.07;;
10596;SDS011;5346;48.766;8.674;2023-06-26T00:48:09;7.18;;;5.85;;
10596;SDS011;5346;48.766;8.674;2023-06-26T00:50:50;9.30;;;5.97;;
10596;SDS011;5346;48.766;8.674;2023-06-26T00:53:21;7.57;;;5.88;;
10596;SDS011;5346;48.766;8.674;2023-06-26T00:56:03;8.85;;;6.13;;
10596;SDS011;5346;48.766;8.674;2023-06-26T00:58:39;7.32;;;5.82;;
10596;SDS011;5346;48.766;8.674;2023-06-26T01:01:13;9.88;;;6.22;;
10596;SDS011;5346;48.766;8.674;2023-06-26T01:03:51;7.38;;;5.68;;
10596;SDS011;5346;48.766;8.674;2023-06-26T01:06:32;7.40;;;5.78;;
10596;SDS011;5346;48.766;8.674;2023-06-26T01:09:09;8.57;;;6.25;;
10596;SDS011;5346;48.766;8.674;2023-06-26T01:11:36;7.20;;;5.50;;
10596;SDS011;5346;48.766;8.674;2023-06-26T01:14:12;6.25;;;5.63;;
10596;SDS011;5346;48.766;8.674;2023-06-26T01:16:40;6.68;;;5.97;;
10596;SDS011;5346;48.766;8.674;2023-06-26T01:19:20;9.88;;;6.38;;
10596;SDS011;5346;48.766;8.674;2023-06-26T01:28:11;7.38;;;6.57;;
10596;SDS011;5346;48.766;8.674;2023-06-26T01:30:48;8.82;;;6.32;;
10596;SDS011;5346;48.766;8.674;2023-06-26T01:33:24;7.05;;;5.85;;
10596;SDS011;5346;48.766;8.674;2023-06-26T01:35:53;6.28;;;5.50;;
10596;SDS011;5346;48.766;8.674;2023-06-26T01:38:29;6.30;;;5.65;;
10596;SDS011;5346;48.766;8.674;2023-06-26T01:41:03;6.88;;;5.05;;
10596;SDS011;5346;48.766;8.674;2023-06-26T01:43:41;7.78;;;5.85;;
10596;SDS011;5346;48.766;8.674;2023-06-26T01:47:12;7.53;;;5.50;;
10596;SDS011;5346;48.766;8.674;2023-06-26T01:52:42;6.55;;;5.35;;
10596;SDS011;5346;48.766;8.674;2023-06-26T01:55:38;6.22;;;5.43;;
10596;SDS011;5346;48.766;8.674;2023-06-26T01:58:22;6.50;;;5.75;;
10596;SDS011;5346;48.766;8.674;2023-06-26T02:01:00;7.53;;;5.72;;
10596;SDS011;5346;48.766;8.674;2023-06-26T02:03:28;6.35;;;5.00;;
10596;SDS011;5346;48.766;8.674;2023-06-26T02:06:06;6.53;;;5.13;;
10596;SDS011;5346;48.766;8.674;2023-06-26T02:08:41;9.50;;;5.43;;
10596;SDS011;5346;48.766;8.674;2023-06-26T02:11:17;6.20;;;5.30;;
10596;SDS011;5346;48.766;8.674;2023-06-26T02:13:51;5.22;;;4.65;;
10596;SDS011;5346;48.766;8.674;2023-06-26T02:16:19;6.38;;;5.43;;
10596;SDS011;5346;48.766;8.674;2023-06-26T02:18:55;7.32;;;5.40;;
10596;SDS011;5346;48.766;8.674;2023-06-26T02:21:28;7.38;;;5.07;;
10596;SDS011;5346;48.766;8.674;2023-06-26T02:24:04;6.35;;;5.50;;
10596;SDS011;5346;48.766;8.674;2023-06-26T02:26:32;7.47;;;5.70;;
10596;SDS011;5346;48.766;8.674;2023-06-26T02:29:06;7.57;;;5.10;;
10596;SDS011;5346;48.766;8.674;2023-06-26T02:31:34;6.80;;;5.55;;
10596;SDS011;5346;48.766;8.674;2023-06-26T02:34:11;8.65;;;5.82;;
10596;SDS011;5346;48.766;8.674;2023-06-26T02:36:45;6.38;;;5.15;;
10596;SDS011;5346;48.766;8.674;2023-06-26T02:39:20;6.40;;;5.18;;
10596;SDS011;5346;48.766;8.674;2023-06-26T02:41:55;6.68;;;5.15;;
10596;SDS011;5346;48.766;8.674;2023-06-26T02:44:29;5.60;;;5.03;;
10596;SDS011;5346;48.766;8.674;2023-06-26T02:46:57;5.30;;;4.78;;
10596;SDS011;5346;48.766;8.674;2023-06-26T02:49:32;7.57;;;4.82;;
10596;SDS011;5346;48.766;8.674;2023-06-26T02:52:07;6.22;;;5.25;;
10596;SDS011;5346;48.766;8.674;2023-06-26T02:54:42;5.53;;;4.85;;
10596;SDS011;5346;48.766;8.674;2023-06-26T02:57:21;5.32;;;4.65;;
10596;SDS011;5346;48.766;8.674;2023-06-26T02:59:55;6.13;;;5.15;;
10596;SDS011;5346;48.766;8.674;2023-06-26T03:02:22;6.00;;;5.10;;
10596;SDS011;5346;48.766;8.674;2023-06-26T03:04:50;6.97;;;5.13;;
10596;SDS011;5346;48.766;8.674;2023-06-26T03:07:27;6.90;;;5.18;;
10596;SDS011;5346;48.766;8.674;2023-06-26T03:10:01;5.38;;;4.80;;
10596;SDS011;5346;48.766;8.674;2023-06-26T03:12:35;6.18;;;5.35;;
10596;SDS011;5346;48.766;8.674;2023-06-26T03:15:12;5.90;;;4.88;;
10596;SDS011;5346;48.766;8.674;2023-06-26T03:17:46;7.07;;;4.72;;
10596;SDS011;5346;48.766;8.674;2023-06-26T03:20:23;5.03;;;4.50;;
10596;SDS011;5346;48.766;8.674;2023-06-26T03:22:51;5.88;;;4.90;;
10596;SDS011;5346;48.766;8.674;2023-06-26T03:25:25;6.88;;;4.65;;
10596;SDS011;5346;48.766;8.674;2023-06-26T03:27:59;5.90;;;4.70;;
10596;SDS011;5346;48.766;8.674;2023-06-26T03:30:34;5.93;;;4.93;;
10596;SDS011;5346;48.766;8.674;2023-06-26T03:33:09;5.65;;;4.97;;
10596;SDS011;5346;48.766;8.674;2023-06-26T03:35:46;5.75;;;4.93;;
10596;SDS011;5346;48.766;8.674;2023-06-26T03:38:14;7.05;;;4.53;;
10596;SDS011;5346;48.766;8.674;2023-06-26T03:40:51;5.65;;;5.05;;
10596;SDS011;5346;48.766;8.674;2023-06-26T03:43:26;5.38;;;4.53;;
10596;SDS011;5346;48.766;8.674;2023-06-26T03:45:53;5.38;;;4.68;;
10596;SDS011;5346;48.766;8.674;2023-06-26T03:48:30;8.27;;;4.50;;
10596;SDS011;5346;48.766;8.674;2023-06-26T03:51:05;8.60;;;4.57;;
10596;SDS011;5346;48.766;8.674;2023-06-26T03:53:46;7.53;;;4.90;;
10596;SDS011;5346;48.766;8.674;2023-06-26T03:56:21;5.53;;;4.88;;
10596;SDS011;5346;48.766;8.674;2023-06-26T03:58:48;8.32;;;4.82;;
10596;SDS011;5346;48.766;8.674;2023-06-26T04:01:24;5.90;;;5.05;;
10596;SDS011;5346;48.766;8.674;2023-06-26T04:03:52;7.20;;;5.15;;
10596;SDS011;5346;48.766;8.674;2023-06-26T04:06:28;6.55;;;4.75;;
10596;SDS011;5346;48.766;8.674;2023-06-26T04:09:06;5.40;;;4.40;;
10596;SDS011;5346;48.766;8.674;2023-06-26T04:11:42;6.25;;;5.00;;
10596;SDS011;5346;48.766;8.674;2023-06-26T04:14:27;5.13;;;4.63;;
10596;SDS011;5346;48.766;8.674;2023-06-26T04:17:02;5.53;;;4.82;;
10596;SDS011;5346;48.766;8.674;2023-06-26T04:19:41;5.72;;;5.07;;
10596;SDS011;5346;48.766;8.674;2023-06-26T04:22:14;6.15;;;5.00;;
10596;SDS011;5346;48.766;8.674;2023-06-26T04:24:49;5.43;;;4.57;;
10596;SDS011;5346;48.766;8.674;2023-06-26T04:27:23;7.60;;;4.95;;
10596;SDS011;5346;48.766;8.674;2023-06-26T04:29:55;4.82;;;4.32;;
10596;SDS011;5346;48.766;8.674;2023-06-26T04:32:29;5.20;;;4.70;;
10596;SDS011;5346;48.766;8.674;2023-06-26T04:34:59;5.53;;;5.03;;
10596;SDS011;5346;48.766;8.674;2023-06-26T04:37:33;7.53;;;4.78;;
10596;SDS011;5346;48.766;8.674;2023-06-26T04:40:01;5.25;;;4.47;;
10596;SDS011;5346;48.766;8.674;2023-06-26T04:42:39;6.15;;;4.70;;
10596;SDS011;5346;48.766;8.674;2023-06-26T04:45:06;5.15;;;4.65;;
10596;SDS011;5346;48.766;8.674;2023-06-26T04:47:41;6.55;;;4.65;;
10596;SDS011;5346;48.766;8.674;2023-06-26T04:50:11;7.47;;;4.90;;
10596;SDS011;5346;48.766;8.674;2023-06-26T04:52:46;6.38;;;4.40;;
10596;SDS011;5346;48.766;8.674;2023-06-26T04:55:36;8.15;;;4.53;;
10596;SDS011;5346;48.766;8.674;2023-06-26T04:58:15;6.50;;;4.90;;
10596;SDS011;5346;48.766;8.674;2023-06-26T05:00:52;5.05;;;4.50;;
10596;SDS011;5346;48.766;8.674;2023-06-26T05:03:29;8.73;;;5.05;;
10596;SDS011;5346;48.766;8.674;2023-06-26T05:05:56;5.25;;;4.70;;
10596;SDS011;5346;48.766;8.674;2023-06-26T05:08:35;6.00;;;5.07;;
10596;SDS011;5346;48.766;8.674;2023-06-26T05:11:09;8.52;;;5.00;;
10596;SDS011;5346;48.766;8.674;2023-06-26T05:13:42;5.40;;;4.75;;
10596;SDS011;5346;48.766;8.674;2023-06-26T05:16:17;5.63;;;4.47;;
10596;SDS011;5346;48.766;8.674;2023-06-26T05:18:51;5.80;;;4.95;;
10596;SDS011;5346;48.766;8.674;2023-06-26T05:21:32;5.13;;;4.63;;
10596;SDS011;5346;48.766;8.674;2023-06-26T05:24:12;5.00;;;4.50;;
10596;SDS011;5346;48.766;8.674;2023-06-26T05:26:50;12.80;;;4.88;;
10596;SDS011;5346;48.766;8.674;2023-06-26T05:29:32;5.35;;;4.63;;
10596;SDS011;5346;48.766;8.674;2023-06-26T05:32:04;6.05;;;4.57;;
10596;SDS011;5346;48.766;8.674;2023-06-26T05:34:42;5.50;;;4.75;;
10596;SDS011;5346;48.766;8.674;2023-06-26T05:37:25;5.18;;;4.68;;
10596;SDS011;5346;48.766;8.674;2023-06-26T05:40:01;5.70;;;4.55;;
10596;SDS011;5346;48.766;8.674;2023-06-26T05:42:38;5.20;;;4.70;;
10596;SDS011;5346;48.766;8.674;2023-06-26T05:45:13;8.27;;;4.45;;
10596;SDS011;5346;48.766;8.674;2023-06-26T05:47:55;4.78;;;4.10;;
10596;SDS011;5346;48.766;8.674;2023-06-26T05:50:30;5.38;;;4.72;;
10596;SDS011;5346;48.766;8.674;2023-06-26T05:53:19;4.93;;;4.10;;
10596;SDS011;5346;48.766;8.674;2023-06-26T05:56:01;6.60;;;4.40;;
10596;SDS011;5346;48.766;8.674;2023-06-26T05:58:37;4.90;;;4.40;;
10596;SDS011;5346;48.766;8.674;2023-06-26T06:01:09;5.22;;;4.25;;
10596;SDS011;5346;48.766;8.674;2023-06-26T06:03:43;5.05;;;4.50;;
10596;SDS011;5346;48.766;8.674;2023-06-26T06:06:11;6.55;;;4.13;;
10596;SDS011;5346;48.766;8.674;2023-06-26T06:08:45;5.85;;;4.38;;
10596;SDS011;5346;48.766;8.674;2023-06-26T06:11:15;6.95;;;4.07;;
10596;SDS011;5346;48.766;8.674;2023-06-26T06:13:48;4.65;;;4.15;;
10596;SDS011;5346;48.766;8.674;2023-06-26T06:16:22;4.80;;;4.40;;
10596;SDS011;5346;48.766;8.674;2023-06-26T06:18:57;5.10;;;4.18;;
10596;SDS011;5346;48.766;8.674;2023-06-26T06:21:29;4.47;;;3.95;;
10596;SDS011;5346;48.766;8.674;2023-06-26T06:24:03;4.55;;;4.07;;
10596;SDS011;5346;48.766;8.674;2023-06-26T06:26:33;6.78;;;4.28;;
10596;SDS011;5346;48.766;8.674;2023-06-26T06:29:07;8.23;;;4.72;;
10596;SDS011;5346;48.766;8.674;2023-06-26T06:31:46;7.72;;;4.38;;
10596;SDS011;5346;48.766;8.674;2023-06-26T06:34:25;4.95;;;4.40;;
10596;SDS011;5346;48.766;8.674;2023-06-26T06:36:56;4.63;;;4.20;;
10596;SDS011;5346;48.766;8.674;2023-06-26T06:39:26;4.65;;;4.25;;
10596;SDS011;5346;48.766;8.674;2023-06-26T06:42:00;4.65;;;4.25;;
10596;SDS011;5346;48.766;8.674;2023-06-26T06:44:34;4.32;;;3.92;;
10596;SDS011;5346;48.766;8.674;2023-06-26T06:47:09;5.43;;;4.03;;
10596;SDS011;5346;48.766;8.674;2023-06-26T06:49:44;4.50;;;4.10;;
10596;SDS011;5346;48.766;8.674;2023-06-26T06:52:29;4.72;;;4.25;;
10596;SDS011;5346;48.766;8.674;2023-06-26T06:55:11;6.43;;;4.55;;
10596;SDS011;5346;48.766;8.674;2023-06-26T06:57:45;4.65;;;3.85;;
10596;SDS011;5346;48.766;8.674;2023-06-26T07:00:19;4.25;;;3.85;;
10596;SDS011;5346;48.766;8.674;2023-06-26T07:02:53;4.43;;;4.03;;
10596;SDS011;5346;48.766;8.674;2023-06-26T07:05:23;5.80;;;4.70;;
10596;SDS011;5346;48.766;8.674;2023-06-26T07:08:04;4.50;;;4.10;;
10596;SDS011;5346;48.766;8.674;2023-06-26T07:10:32;7.45;;;4.25;;
10596;SDS011;5346;48.766;8.674;2023-06-26T07:13:07;6.60;;;3.92;;
10596;SDS011;5346;48.766;8.674;2023-06-26T07:15:35;4.60;;;4.20;;
10596;SDS011;5346;48.766;8.674;2023-06-26T07:18:12;4.20;;;3.80;;
10596;SDS011;5346;48.766;8.674;2023-06-26T07:20:40;4.55;;;4.10;;
10596;SDS011;5346;48.766;8.674;2023-06-26T07:23:16;6.40;;;3.65;;
10596;SDS011;5346;48.766;8.674;2023-06-26T07:25:50;5.38;;;4.18;;
10596;SDS011;5346;48.766;8.674;2023-06-26T07:28:32;7.28;;;4.50;;
10596;SDS011;5346;48.766;8.674;2023-06-26T07:31:01;4.43;;;4.03;;
10596;SDS011;5346;48.766;8.674;2023-06-26T07:33:40;6.30;;;4.15;;
10596;SDS011;5346;48.766;8.674;2023-06-26T07:36:09;5.18;;;4.40;;
10596;SDS011;5346;48.766;8.674;2023-06-26T07:38:45;4.55;;;4.15;;
10596;SDS011;5346;48.766;8.674;2023-06-26T07:41:13;4.97;;;3.92;;
10596;SDS011;5346;48.766;8.674;2023-06-26T07:43:48;4.60;;;4.10;;
10596;SDS011;5346;48.766;8.674;2023-06-26T07:46:24;4.65;;;4.25;;
10596;SDS011;5346;48.766;8.674;2023-06-26T07:49:01;7.75;;;4.03;;
10596;SDS011;5346;48.766;8.674;2023-06-26T07:51:36;5.43;;;4.32;;
10596;SDS011;5346;48.766;8.674;2023-06-26T07:54:10;4.93;;;4.43;;
10596;SDS011;5346;48.766;8.674;2023-06-26T07:56:57;4.68;;;4.15;;
10596;SDS011;5346;48.766;8.674;2023-06-26T07:59:34;4.80;;;4.28;;
10596;SDS011;5346;48.766;8.674;2023-06-26T08:02:12;4.93;;;4.47;;
10596;SDS011;5346;48.766;8.674;2023-06-26T08:04:45;6.93;;;5.18;;
10596;SDS011;5346;48.766;8.674;2023-06-26T08:07:20;6.82;;;4.53;;
10596;SDS011;5346;48.766;8.674;2023-06-26T08:09:48;7.32;;;4.38;;
10596;SDS011;5346;48.766;8.674;2023-06-26T08:12:24;6.45;;;4.60;;
10596;SDS011;5346;48.766;8.674;2023-06-26T08:14:53;4.30;;;3.90;;
10596;SDS011;5346;48.766;8.674;2023-06-26T08:17:28;6.05;;;4.85;;
10596;SDS011;5346;48.766;8.674;2023-06-26T08:20:05;5.35;;;4.85;;
10596;SDS011;5346;48.766;8.674;2023-06-26T08:22:41;6.18;;;4.25;;
10596;SDS011;5346;48.766;8.674;2023-06-26T08:25:15;5.03;;;4.53;;
10596;SDS011;5346;48.766;8.674;2023-06-26T08:27:52;4.50;;;4.10;;
10596;SDS011;5346;48.766;8.674;2023-06-26T08:30:21;5.10;;;4.70;;
10596;SDS011;5346;48.766;8.674;2023-06-26T08:32:55;6.10;;;4.72;;
10596;SDS011;5346;48.766;8.674;2023-06-26T08:35:29;5.38;;;4.82;;
10596;SDS011;5346;48.766;8.674;2023-06-26T08:37:57;5.22;;;4.70;;
10596;SDS011;5346;48.766;8.674;2023-06-26T08:40:31;5.05;;;4.55;;
10596;SDS011;5346;48.766;8.674;2023-06-26T08:43:06;6.80;;;4.93;;
10596;SDS011;5346;48.766;8.674;2023-06-26T08:45:40;6.35;;;4.95;;
10596;SDS011;5346;48.766;8.674;2023-06-26T08:48:09;6.80;;;4.60;;
10596;SDS011;5346;48.766;8.674;2023-06-26T08:50:49;9.48;;;4.78;;
10596;SDS011;5346;48.766;8.674;2023-06-26T08:54:20;5.07;;;4.60;;
10596;SDS011;5346;48.766;8.674;2023-06-26T08:56:41;6.97;;;5.30;;
10596;SDS011;5346;48.766;8.674;2023-06-26T08:59:21;5.18;;;4.68;;
10596;SDS011;5346;48.766;8.674;2023-06-26T09:01:56;5.03;;;4.53;;
10596;SDS011;5346;48.766;8.674;2023-06-26T09:04:25;5.47;;;4.97;;
10596;SDS011;5346;48.766;8.674;2023-06-26T09:06:59;5.97;;;4.70;;
10596;SDS011;5346;48.766;8.674;2023-06-26T09:09:30;5.70;;;4.82;;
10596;SDS011;5346;48.766;8.674;2023-06-26T09:12:04;7.82;;;4.97;;
10596;SDS011;5346;48.766;8.674;2023-06-26T09:14:39;5.07;;;4.57;;
10596;SDS011;5346;48.766;8.674;2023-06-26T09:17:13;15.20;;;5.47;;
10596;SDS011;5346;48.766;8.674;2023-06-26T09:20:00;9.15;;;5.38;;
10596;SDS011;5346;48.766;8.674;2023-06-26T09:22:28;6.10;;;5.45;;
10596;SDS011;5346;48.766;8.674;2023-06-26T09:25:03;5.55;;;5.05;;
10596;SDS011;5346;48.766;8.674;2023-06-26T09:27:41;10.25;;;5.80;;
10596;SDS011;5346;48.766;8.674;2023-06-26T09:30:19;11.32;;;6.00;;
10596;SDS011;5346;48.766;8.674;2023-06-26T09:32:48;7.05;;;6.38;;
10596;SDS011;5346;48.766;8.674;2023-06-26T09:35:27;8.45;;;6.20;;
10596;SDS011;5346;48.766;8.674;2023-06-26T09:38:02;6.72;;;6.13;;
10596;SDS011;5346;48.766;8.674;2023-06-26T09:40:30;7.90;;;6.43;;
10596;SDS011;5346;48.766;8.674;2023-06-26T09:43:05;6.60;;;5.90;;
10596;SDS011;5346;48.766;8.674;2023-06-26T09:45:34;6.38;;;5.78;;
10596;SDS011;5346;48.766;8.674;2023-06-26T09:48:11;7.13;;;6.43;;
10596;SDS011;5346;48.766;8.674;2023-06-26T09:50:41;7.97;;;5.88;;
10596;SDS011;5346;48.766;8.674;2023-06-26T09:53:36;7.90;;;6.15;;
10596;SDS011;5346;48.766;8.674;2023-06-26T09:56:17;6.75;;;6.15;;
10596;SDS011;5346;48.766;8.674;2023-06-26T09:58:52;6.75;;;6.07;;
10596;SDS011;5346;48.766;8.674;2023-06-26T10:01:32;7.30;;;6.10;;
10596;SDS011;5346;48.766;8.674;2023-06-26T10:04:09;6.80;;;6.13;;
10596;SDS011;5346;48.766;8.674;2023-06-26T10:06:47;10.15;;;6.63;;
10596;SDS011;5346;48.766;8.674;2023-06-26T10:09:19;6.45;;;5.85;;
10596;SDS011;5346;48.766;8.674;2023-06-26T10:14:41;8.80;;;6.15;;
10596;SDS011;5346;48.766;8.674;2023-06-26T10:17:16;9.15;;;6.15;;
10596;SDS011;5346;48.766;8.674;2023-06-26T10:19:53;8.77;;;6.18;;
10596;SDS011;5346;48.766;8.674;2023-06-26T10:22:32;7.18;;;6.35;;
10596;SDS011;5346;48.766;8.674;2023-06-26T10:25:10;6.75;;;6.03;;
10596;SDS011;5346;48.766;8.674;2023-06-26T10:27:46;8.02;;;6.03;;
10596;SDS011;5346;48.766;8.674;2023-06-26T10:30:27;8.07;;;6.65;;
10596;SDS011;5346;48.766;8.674;2023-06-26T10:33:06;6.93;;;5.90;;
10596;SDS011;5346;48.766;8.674;2023-06-26T10:35:40;7.18;;;5.90;;
10596;SDS011;5346;48.766;8.674;2023-06-26T10:38:18;6.55;;;5.80;;
10596;SDS011;5346;48.766;8.674;2023-06-26T10:40:53;6.20;;;5.60;;
10596;SDS011;5346;48.766;8.674;2023-06-26T10:43:29;5.72;;;5.18;;
10596;SDS011;5346;48.766;8.674;2023-06-26T10:46:04;7.40;;;6.22;;
10596;SDS011;5346;48.766;8.674;2023-06-26T10:49:03;8.43;;;5.60;;
10596;SDS011;5346;48.766;8.674;2023-06-26T10:51:37;8.52;;;5.90;;
10596;SDS011;5346;48.766;8.674;2023-06-26T10:54:18;10.68;;;5.53;;
10596;SDS011;5346;48.766;8.674;2023-06-26T10:56:59;6.13;;;5.53;;
10596;SDS011;5346;48.766;8.674;2023-06-26T10:59:38;10.23;;;6.07;;
10596;SDS011;5346;48.766;8.674;2023-06-26T11:02:15;6.07;;;5.45;;
10596;SDS011;5346;48.766;8.674;2023-06-26T11:04:50;5.72;;;4.88;;
10596;SDS011;5346;48.766;8.674;2023-06-26T11:07:20;5.95;;;5.05;;
10596;SDS011;5346;48.766;8.674;2023-06-26T11:10:09;6.90;;;5.82;;
10596;SDS011;5346;48.766;8.674;2023-06-26T11:12:44;5.68;;;5.18;;
10596;SDS011;5346;48.766;8.674;2023-06-26T11:15:15;5.68;;;5.07;;
10596;SDS011;5346;48.766;8.674;2023-06-26T11:17:51;6.05;;;5.47;;
10596;SDS011;5346;48.766;8.674;2023-06-26T11:20:26;5.78;;;5.18;;
10596;SDS011;5346;48.766;8.674;2023-06-26T11:23:02;7.00;;;5.95;;
10596;SDS011;5346;48.766;8.674;2023-06-26T11:25:34;7.93;;;6.20;;
10596;SDS011;5346;48.766;8.674;2023-06-26T11:28:09;6.00;;;5.40;;
10596;SDS011;5346;48.766;8.674;2023-06-26T11:30:44;8.15;;;5.57;;
10596;SDS011;5346;48.766;8.674;2023-06-26T11:33:18;7.72;;;6.03;;
10596;SDS011;5346;48.766;8.674;2023-06-26T11:36:09;6.88;;;5.82;;
10596;SDS011;5346;48.766;8.674;2023-06-26T11:38:43;6.35;;;5.53;;
10596;SDS011;5346;48.766;8.674;2023-06-26T11:41:17;7.22;;;5.65;;
10596;SDS011;5346;48.766;8.674;2023-06-26T11:43:52;11.15;;;5.70;;
10596;SDS011;5346;48.766;8.674;2023-06-26T11:46:30;9.25;;;6.22;;
10596;SDS011;5346;48.766;8.674;2023-06-26T11:49:06;13.98;;;5.90;;
10596;SDS011;5346;48.766;8.674;2023-06-26T11:51:34;6.32;;;5.65;;
10596;SDS011;5346;48.766;8.674;2023-06-26T11:54:11;6.47;;;5.47;;
10596;SDS011;5346;48.766;8.674;2023-06-26T11:56:54;7.60;;;5.78;;
10596;SDS011;5346;48.766;8.674;2023-06-26T11:59:33;6.72;;;5.82;;
10596;SDS011;5346;48.766;8.674;2023-06-26T12:02:20;9.23;;;5.60;;
10596;SDS011;5346;48.766;8.674;2023-06-26T12:04:54;13.48;;;5.93;;
10596;SDS011;5346;48.766;8.674;2023-06-26T12:07:22;6.05;;;5.50;;
10596;SDS011;5346;48.766;8.674;2023-06-26T12:09:57;5.50;;;4.82;;
10596;SDS011;5346;48.766;8.674;2023-06-26T12:12:26;6.25;;;5.60;;
10596;SDS011;5346;48.766;8.674;2023-06-26T12:15:01;8.90;;;4.72;;
10596;SDS011;5346;48.766;8.674;2023-06-26T12:17:30;6.65;;;5.35;;
10596;SDS011;5346;48.766;8.674;2023-06-26T12:20:04;9.95;;;5.05;;
10596;SDS011;5346;48.766;8.674;2023-06-26T12:22:49;8.55;;;5.40;;
10596;SDS011;5346;48.766;8.674;2023-06-26T12:25:23;7.47;;;4.85;;
10596;SDS011;5346;48.766;8.674;2023-06-26T12:27:58;8.60;;;5.35;;
10596;SDS011;5346;48.766;8.674;2023-06-26T12:30:26;5.75;;;5.00;;
10596;SDS011;5346;48.766;8.674;2023-06-26T12:33:00;4.80;;;4.28;;
10596;SDS011;5346;48.766;8.674;2023-06-26T12:35:28;5.60;;;4.60;;
10596;SDS011;5346;48.766;8.674;2023-06-26T12:38:08;6.85;;;4.47;;
10596;SDS011;5346;48.766;8.674;2023-06-26T12:40:46;4.63;;;4.03;;
10596;SDS011;5346;48.766;8.674;2023-06-26T12:43:25;5.53;;;4.50;;
10596;SDS011;5346;48.766;8.674;2023-06-26T12:45:59;5.82;;;5.03;;
10596;SDS011;5346;48.766;8.674;2023-06-26T12:48:43;7.00;;;4.63;;
10596;SDS011;5346;48.766;8.674;2023-06-26T12:51:22;5.03;;;4.53;;
10596;SDS011;5346;48.766;8.674;2023-06-26T12:53:59;6.07;;;4.25;;
10596;SDS011;5346;48.766;8.674;2023-06-26T12:56:46;4.82;;;4.40;;
10596;SDS011;5346;48.766;8.674;2023-06-26T12:59:22;7.82;;;4.47;;
10596;SDS011;5346;48.766;8.674;2023-06-26T13:01:56;5.78;;;3.95;;
10596;SDS011;5346;48.766;8.674;2023-06-26T13:04:32;7.63;;;4.20;;
10596;SDS011;5346;48.766;8.674;2023-06-26T13:07:00;5.85;;;4.15;;
10596;SDS011;5346;48.766;8.674;2023-06-26T13:09:36;11.10;;;3.88;;
10596;SDS011;5346;48.766;8.674;2023-06-26T13:12:11;6.70;;;3.78;;
10596;SDS011;5346;48.766;8.674;2023-06-26T13:14:45;6.45;;;4.10;;
10596;SDS011;5346;48.766;8.674;2023-06-26T13:17:14;4.40;;;3.85;;
10596;SDS011;5346;48.766;8.674;2023-06-26T13:19:49;4.78;;;4.00;;
10596;SDS011;5346;48.766;8.674;2023-06-26T13:22:17;4.65;;;4.15;;
10596;SDS011;5346;48.766;8.674;2023-06-26T13:24:51;6.50;;;3.97;;
10596;SDS011;5346;48.766;8.674;2023-06-26T13:27:28;5.35;;;3.95;;
10596;SDS011;5346;48.766;8.674;2023-06-26T13:30:02;8.32;;;3.88;;
10596;SDS011;5346;48.766;8.674;2023-06-26T13:32:31;5.72;;;3.50;;
10596;SDS011;5346;48.766;8.674;2023-06-26T13:35:05;4.38;;;3.67;;
10596;SDS011;5346;48.766;8.674;2023-06-26T13:37:41;6.50;;;3.70;;
10596;SDS011;5346;48.766;8.674;2023-06-26T13:40:15;4.32;;;3.45;;
10596;SDS011;5346;48.766;8.674;2023-06-26T13:42:49;5.88;;;3.75;;
10596;SDS011;5346;48.766;8.674;2023-06-26T13:45:18;4.10;;;3.47;;
10596;SDS011;5346;48.766;8.674;2023-06-26T13:47:57;5.43;;;3.70;;
10596;SDS011;5346;48.766;8.674;2023-06-26T13:50:25;4.88;;;3.38;;
10596;SDS011;5346;48.766;8.674;2023-06-26T13:53:19;3.58;;;3.25;;
10596;SDS011;5346;48.766;8.674;2023-06-26T13:55:54;7.13;;;3.58;;
10596;SDS011;5346;48.766;8.674;2023-06-26T13:58:35;4.50;;;3.75;;
10596;SDS011;5346;48.766;8.674;2023-06-26T14:01:12;5.80;;;3.78;;
10596;SDS011;5346;48.766;8.674;2023-06-26T14:03:46;4.53;;;4.10;;
10596;SDS011;5346;48.766;8.674;2023-06-26T14:06:20;7.15;;;3.28;;
10596;SDS011;5346;48.766;8.674;2023-06-26T14:08:49;5.10;;;3.78;;
10596;SDS011;5346;48.766;8.674;2023-06-26T14:11:23;9.13;;;3.90;;
10596;SDS011;5346;48.766;8.674;2023-06-26T14:13:52;4.07;;;3.55;;
10596;SDS011;5346;48.766;8.674;2023-06-26T14:16:26;6.07;;;3.60;;
10596;SDS011;5346;48.766;8.674;2023-06-26T14:19:01;7.10;;;4.43;;
10596;SDS011;5346;48.766;8.674;2023-06-26T14:21:29;7.35;;;4.07;;
10596;SDS011;5346;48.766;8.674;2023-06-26T14:24:03;7.00;;;4.40;;
10596;SDS011;5346;48.766;8.674;2023-06-26T14:26:31;6.70;;;4.75;;
10596;SDS011;5346;48.766;8.674;2023-06-26T14:29:07;5.88;;;4.32;;
10596;SDS011;5346;48.766;8.674;2023-06-26T14:31:36;10.55;;;4.45;;
10596;SDS011;5346;48.766;8.674;2023-06-26T14:34:10;5.85;;;4.43;;
10596;SDS011;5346;48.766;8.674;2023-06-26T14:36:44;6.13;;;4.28;;
10596;SDS011;5346;48.766;8.674;2023-06-26T14:39:18;8.10;;;5.05;;
10596;SDS011;5346;48.766;8.674;2023-06-26T14:41:53;6.57;;;4.47;;
10596;SDS011;5346;48.766;8.674;2023-06-26T14:44:27;6.53;;;4.50;;
10596;SDS011;5346;48.766;8.674;2023-06-26T14:46:56;5.32;;;4.82;;
10596;SDS011;5346;48.766;8.674;2023-06-26T14:49:30;8.32;;;4.50;;
10596;SDS011;5346;48.766;8.674;2023-06-26T14:52:04;7.10;;;5.10;;
10596;SDS011;5346;48.766;8.674;2023-06-26T14:54:47;6.75;;;5.07;;
10596;SDS011;5346;48.766;8.674;2023-06-26T14:57:14;6.15;;;4.82;;
10596;SDS011;5346;48.766;8.674;2023-06-26T14:59:49;7.65;;;4.97;;
10596;SDS011;5346;48.766;8.674;2023-06-26T15:02:24;6.75;;;5.28;;
10596;SDS011;5346;48.766;8.674;2023-06-26T15:04:58;10.10;;;5.88;;
10596;SDS011;5346;48.766;8.674;2023-06-26T15:07:34;12.93;;;5.70;;
10596;SDS011;5346;48.766;8.674;2023-06-26T15:10:02;8.32;;;5.00;;
10596;SDS011;5346;48.766;8.674;2023-06-26T15:12:36;7.15;;;5.15;;
10596;SDS011;5346;48.766;8.674;2023-06-26T15:15:04;8.20;;;5.70;;
10596;SDS011;5346;48.766;8.674;2023-06-26T15:17:40;9.98;;;5.82;;
10596;SDS011;5346;48.766;8.674;2023-06-26T15:20:14;8.73;;;5.75;;
10596;SDS011;5346;48.766;8.674;2023-06-26T15:22:48;11.55;;;6.43;;
10596;SDS011;5346;48.766;8.674;2023-06-26T15:25:23;9.15;;;6.22;;
10596;SDS011;5346;48.766;8.674;2023-06-26T15:27:57;10.63;;;5.53;;
10596;SDS011;5346;48.766;8.674;2023-06-26T15:30:32;7.70;;;5.70;;
10596;SDS011;5346;48.766;8.674;2023-06-26T15:33:00;9.68;;;6.18;;
10596;SDS011;5346;48.766;8.674;2023-06-26T15:35:35;8.38;;;6.18;;
10596;SDS011;5346;48.766;8.674;2023-06-26T15:38:10;12.43;;;5.70;;
10596;SDS011;5346;48.766;8.674;2023-06-26T15:40:44;10.80;;;5.55;;
10596;SDS011;5346;48.766;8.674;2023-06-26T15:43:18;7.60;;;5.95;;
10596;SDS011;5346;48.766;8.674;2023-06-26T15:45:53;9.18;;;5.78;;
10596;SDS011;5346;48.766;8.674;2023-06-26T15:48:27;7.45;;;4.80;;
10596;SDS011;5346;48.766;8.674;2023-06-26T15:51:03;5.60;;;5.00;;
10596;SDS011;5346;48.766;8.674;2023-06-26T15:53:38;8.18;;;5.32;;
10596;SDS011;5346;48.766;8.674;2023-06-26T15:56:20;8.35;;;5.03;;
10596;SDS011;5346;48.766;8.674;2023-06-26T15:58:55;10.82;;;4.65;;